createdAt,value
2022-11-15T00:00:22.202Z,99905.78
2022-11-15T00:03:08.868Z,99906.78
2022-11-15T00:05:56.085Z,99910.00
2022-11-15T00:08:44.305Z,99907.22
2022-11-15T00:11:30.948Z,99909.78
2022-11-15T00:14:17.336Z,99911.72
2022-11-15T00:17:03.713Z,99906.31
2022-11-15T00:19:50.369Z,99910.97
2022-11-15T00:22:36.808Z,99913.97
2022-11-15T00:25:25.130Z,99901.09
2022-11-15T00:28:11.827Z,99897.34
2022-11-15T00:31:02.431Z,99892.19
2022-11-15T00:33:48.849Z,99896.47
2022-11-15T00:36:36.312Z,99899.22
2022-11-15T00:39:23.383Z,99893.03
2022-11-15T00:42:11.319Z,99897.66
2022-11-15T00:44:57.699Z,99887.66
2022-11-15T00:47:46.567Z,99843.63
2022-11-15T00:50:33.148Z,99875.97
2022-11-15T00:53:19.883Z,99853.94
2022-11-15T00:56:07.057Z,99854.63
2022-11-15T00:58:55.390Z,99880.00
2022-11-15T01:01:41.785Z,99886.69
2022-11-15T01:04:28.382Z,99879.19
2022-11-15T01:07:15.402Z,99873.72
2022-11-15T01:10:02.298Z,99821.13
2022-11-15T01:12:48.799Z,99872.03
2022-11-15T01:15:36.937Z,99865.47
2022-11-15T01:18:23.748Z,99859.19
2022-11-15T01:21:12.188Z,99853.16
2022-11-15T01:23:59.023Z,99811.50
2022-11-15T01:26:45.794Z,99855.59
2022-11-15T01:29:32.678Z,99851.34
2022-11-15T01:32:20.727Z,99848.09
2022-11-15T01:35:07.713Z,99842.59
2022-11-15T01:37:54.440Z,99839.53
2022-11-15T01:40:42.176Z,99826.84
2022-11-15T01:43:31.565Z,99729.94
2022-11-15T01:46:27.180Z,99831.66
2022-11-15T01:49:19.507Z,99813.66
2022-11-15T01:52:09.394Z,99830.78
2022-11-15T01:55:00.321Z,99832.84
2022-11-15T01:57:51.134Z,99835.38
2022-11-15T02:00:37.636Z,99825.44
2022-11-15T02:03:29.199Z,99827.63
2022-11-15T02:06:17.323Z,99819.59
2022-11-15T02:09:03.916Z,99828.50
2022-11-15T02:11:52.855Z,99800.34
2022-11-15T02:14:42.441Z,99815.31
2022-11-15T02:17:42.587Z,99813.06
2022-11-15T02:20:44.530Z,99786.56
2022-11-15T02:24:01.398Z,99808.28
2022-11-15T02:27:17.893Z,99804.56
2022-11-15T02:30:24.958Z,99815.53
2022-11-15T02:33:24.190Z,99812.72
2022-11-15T02:36:16.167Z,99810.25
2022-11-15T02:39:09.855Z,99823.81
2022-11-15T02:42:00.031Z,99780.94
2022-11-15T02:44:47.465Z,99812.53
2022-11-15T02:47:43.407Z,99806.19
2022-11-15T02:50:33.788Z,99803.66
2022-11-15T02:53:20.208Z,99807.69
2022-11-15T02:56:07.243Z,99810.09
2022-11-15T02:59:15.772Z,99807.13
2022-11-15T03:02:17.638Z,99807.94
2022-11-15T03:05:16.099Z,99773.84
2022-11-15T03:08:08.804Z,99758.25
2022-11-15T03:11:06.203Z,99801.13
2022-11-15T03:13:59.689Z,99807.41
2022-11-15T03:16:52.708Z,99796.56
2022-11-15T03:19:46.154Z,99796.81
2022-11-15T03:22:38.456Z,99793.22
2022-11-15T03:25:28.169Z,99742.38
2022-11-15T03:28:26.087Z,99795.41
2022-11-15T03:31:29.907Z,99783.47
2022-11-15T03:34:23.906Z,99719.47
2022-11-15T03:37:14.127Z,99783.03
2022-11-15T03:40:02.488Z,99789.91
2022-11-15T03:42:56.944Z,99791.38
2022-11-15T03:45:48.819Z,99797.38
2022-11-15T03:48:39.696Z,99792.56
2022-11-15T03:51:26.321Z,99794.19
2022-11-15T03:54:14.360Z,99796.56
2022-11-15T03:57:02.419Z,99788.38
2022-11-15T03:59:48.730Z,99777.34
2022-11-15T04:02:35.714Z,99792.84
2022-11-15T04:05:22.844Z,99794.72
2022-11-15T04:08:09.652Z,99786.22
2022-11-15T04:10:56.153Z,99785.56
2022-11-15T04:13:44.497Z,99758.06
2022-11-15T04:16:31.021Z,99789.84
2022-11-15T04:19:34.661Z,99787.38
2022-11-15T04:22:53.011Z,99769.91
2022-11-15T04:25:40.127Z,99770.72
2022-11-15T04:28:26.369Z,99782.84
2022-11-15T04:31:14.040Z,99776.91
2022-11-15T04:34:00.413Z,99786.56
2022-11-15T04:37:04.464Z,99776.09
2022-11-15T04:39:51.146Z,99762.38
2022-11-15T04:42:38.093Z,99794.69
2022-11-15T04:45:24.960Z,99789.34
2022-11-15T04:48:13.081Z,99795.97
2022-11-15T04:51:00.646Z,99794.44
2022-11-15T04:53:47.303Z,99799.94
2022-11-15T04:56:34.165Z,99794.25
2022-11-15T04:59:20.858Z,99797.66
2022-11-15T05:02:07.503Z,99793.63
2022-11-15T05:04:54.520Z,99785.56
2022-11-15T05:07:41.187Z,99788.03
2022-11-15T05:10:27.831Z,99790.56
2022-11-15T05:13:14.419Z,99786.41
2022-11-15T05:16:01.134Z,99786.63
2022-11-15T05:18:48.158Z,99788.88
2022-11-15T05:21:36.241Z,99776.41
2022-11-15T05:24:22.590Z,99783.88
2022-11-15T05:27:09.229Z,99772.81
2022-11-15T05:29:56.110Z,99792.63
2022-11-15T05:32:43.409Z,99773.38
2022-11-15T05:35:33.860Z,99781.69
2022-11-15T05:38:22.099Z,99752.41
2022-11-15T05:41:08.869Z,99759.94
2022-11-15T05:43:56.102Z,99764.72
2022-11-15T05:46:43.950Z,99780.19
2022-11-15T05:49:34.018Z,99791.44
2022-11-15T05:52:24.650Z,99783.94
2022-11-15T05:55:12.888Z,99774.34
2022-11-15T05:57:59.511Z,99774.03
2022-11-15T06:00:46.274Z,99772.66
2022-11-15T06:03:33.188Z,99771.06
2022-11-15T06:06:19.768Z,99777.53
2022-11-15T06:09:06.603Z,99772.28
2022-11-15T06:11:54.644Z,99777.94
2022-11-15T06:14:40.954Z,99769.66
2022-11-15T06:17:27.841Z,99775.59
2022-11-15T06:20:14.476Z,99781.22
2022-11-15T06:23:01.754Z,99687.25
2022-11-15T06:25:48.250Z,99780.22
2022-11-15T06:28:36.564Z,99744.19
2022-11-15T06:31:23.040Z,99771.94
2022-11-15T06:34:09.744Z,99762.47
2022-11-15T06:36:56.827Z,99684.41
2022-11-15T06:39:43.105Z,99769.50
2022-11-15T06:42:29.304Z,99766.53
2022-11-15T06:45:17.236Z,99769.69
2022-11-15T06:48:03.488Z,99774.38
2022-11-15T06:50:53.025Z,99778.19
2022-11-15T06:53:39.414Z,99763.44
2022-11-15T06:56:26.056Z,99765.00
2022-11-15T06:59:12.531Z,99767.00
2022-11-15T07:02:00.361Z,99793.09
2022-11-15T07:04:47.264Z,99795.09
2022-11-15T07:07:33.819Z,99784.81
2022-11-15T07:10:20.743Z,99789.44
2022-11-15T07:13:07.357Z,99789.16
2022-11-15T07:15:53.776Z,99733.25
2022-11-15T07:18:42.923Z,99796.03
2022-11-15T07:21:29.509Z,99787.41
2022-11-15T07:24:16.036Z,99795.34
2022-11-15T07:27:02.412Z,99779.78
2022-11-15T07:29:49.249Z,99803.00
2022-11-15T07:32:36.849Z,99804.94
2022-11-15T07:35:25.042Z,99776.25
2022-11-15T07:38:11.737Z,99802.94
2022-11-15T07:40:59.605Z,99805.16
2022-11-15T07:43:45.719Z,99802.31
2022-11-15T07:46:33.012Z,99715.81
2022-11-15T07:49:19.520Z,99789.19
2022-11-15T07:52:07.250Z,99789.53
2022-11-15T07:54:53.787Z,99802.41
2022-11-15T07:57:40.405Z,99803.59
2022-11-15T08:00:27.010Z,99803.00
2022-11-15T08:03:15.089Z,99808.00
2022-11-15T08:06:01.862Z,99770.28
2022-11-15T08:08:50.578Z,99807.09
2022-11-15T08:11:37.164Z,99820.06
2022-11-15T08:14:24.063Z,99797.44
2022-11-15T08:17:10.636Z,99799.59
2022-11-15T08:19:57.091Z,99815.94
2022-11-15T08:22:43.404Z,99803.50
2022-11-15T08:25:33.263Z,99791.66
2022-11-15T08:28:19.733Z,99795.94
2022-11-15T08:31:06.692Z,99798.03
2022-11-15T08:33:53.863Z,99795.88
2022-11-15T08:36:45.648Z,99802.00
2022-11-15T08:39:32.661Z,99768.38
2022-11-15T08:42:21.574Z,99776.41
2022-11-15T08:45:09.808Z,99776.41
2022-11-15T08:47:56.478Z,99779.56
2022-11-15T08:50:44.776Z,99755.16
2022-11-15T08:53:31.433Z,99773.81
2022-11-15T08:56:18.340Z,99786.81
2022-11-15T08:59:06.493Z,99778.69
2022-11-15T09:01:53.519Z,99781.97
2022-11-15T09:04:41.995Z,99789.63
2022-11-15T09:07:30.902Z,99728.81
2022-11-15T09:10:18.046Z,99790.66
2022-11-15T09:13:04.512Z,99731.50
2022-11-15T09:15:52.360Z,99797.41
2022-11-15T09:18:39.153Z,99798.81
2022-11-15T09:21:25.758Z,99802.19
2022-11-15T09:24:12.562Z,99798.13
2022-11-15T09:26:59.170Z,99793.34
2022-11-15T09:29:45.556Z,99796.03
2022-11-15T09:32:38.804Z,99781.19
2022-11-15T09:35:26.266Z,99713.84
2022-11-15T09:38:13.220Z,99781.59
2022-11-15T09:41:32.981Z,99798.00
2022-11-15T09:44:37.463Z,99797.75
2022-11-15T09:47:50.915Z,99796.22
2022-11-15T09:50:44.551Z,99802.09
2022-11-15T09:53:16.275Z,99802.63
2022-11-15T09:55:53.237Z,99788.22
2022-11-15T09:58:29.563Z,99785.34
2022-11-15T10:01:02.423Z,99766.38
2022-11-15T10:03:36.907Z,99781.47
2022-11-15T10:06:07.283Z,99716.25
2022-11-15T10:08:43.373Z,99786.91
2022-11-15T10:14:13.165Z,99770.53
2022-11-15T10:17:27.745Z,99781.47
2022-11-15T10:20:07.545Z,99774.59
2022-11-15T10:22:42.096Z,99772.50
2022-11-15T10:25:19.479Z,99749.53
2022-11-15T10:27:54.623Z,99764.19
2022-11-15T10:30:22.841Z,99751.16
2022-11-15T10:32:51.510Z,99722.56
2022-11-15T10:35:25.832Z,99750.22
2022-11-15T10:37:54.142Z,99739.00
2022-11-15T10:40:24.699Z,99736.59
2022-11-15T10:43:08.201Z,99747.09
2022-11-15T10:45:36.232Z,99660.06
2022-11-15T10:48:23.883Z,99712.72
2022-11-15T10:50:55.000Z,99734.50
2022-11-15T10:53:31.895Z,99730.34
2022-11-15T10:56:04.075Z,99592.50
2022-11-15T10:58:39.308Z,99724.72
2022-11-15T11:01:16.764Z,99716.56
2022-11-15T11:03:46.461Z,99709.38
2022-11-15T11:06:18.081Z,99716.00
2022-11-15T11:08:57.605Z,99703.22
2022-11-15T11:11:26.804Z,99705.72
2022-11-15T11:13:54.820Z,99704.03
2022-11-15T11:16:38.856Z,99701.63
2022-11-15T11:19:20.749Z,99635.34
2022-11-15T11:21:57.954Z,99689.16
2022-11-15T11:24:34.854Z,99697.97
2022-11-15T11:27:20.682Z,99694.31
2022-11-15T11:30:01.320Z,99692.47
2022-11-15T11:32:55.032Z,99687.94
2022-11-15T11:35:29.409Z,99680.78
2022-11-15T11:38:16.549Z,99685.56
2022-11-15T11:41:01.903Z,99657.63
2022-11-15T11:43:41.914Z,99680.50
2022-11-15T11:46:28.167Z,99576.47
2022-11-15T11:49:03.453Z,99671.97
2022-11-15T11:51:40.346Z,99673.28
2022-11-15T11:54:16.810Z,99662.72
2022-11-15T11:56:47.679Z,99630.09
2022-11-15T11:59:28.050Z,99661.84
2022-11-15T12:01:57.113Z,99650.31
2022-11-15T12:04:31.852Z,99639.16
2022-11-15T12:07:03.152Z,99652.66
2022-11-15T12:09:38.124Z,99649.97
2022-11-15T12:12:11.621Z,99603.00
2022-11-15T12:14:47.341Z,99639.38
2022-11-15T12:17:16.037Z,99616.09
2022-11-15T12:19:44.743Z,99625.53
2022-11-15T12:22:19.932Z,99640.44
2022-11-15T12:24:53.892Z,99636.09
2022-11-15T12:27:34.818Z,99634.16
2022-11-15T12:30:06.731Z,99611.00
2022-11-15T12:32:37.202Z,99625.16
2022-11-15T12:35:07.937Z,99611.78
2022-11-15T12:37:56.273Z,99611.00
2022-11-15T12:40:31.916Z,99578.09
2022-11-15T12:43:32.345Z,99596.50
2022-11-15T12:46:04.113Z,99605.91
2022-11-15T12:49:00.331Z,99602.38
2022-11-15T12:52:05.056Z,99603.22
2022-11-15T12:54:55.082Z,99601.81
2022-11-15T12:57:43.410Z,99590.56
2022-11-15T13:00:40.176Z,99582.56
2022-11-15T13:03:28.951Z,99546.50
2022-11-15T13:06:12.189Z,99577.00
2022-11-15T13:08:52.484Z,99574.03
2022-11-15T13:11:38.950Z,99577.09
2022-11-15T13:14:49.677Z,99579.41
2022-11-15T13:17:42.214Z,99581.13
2022-11-15T13:20:31.603Z,99552.84
2022-11-15T13:23:09.561Z,99564.47
2022-11-15T13:26:03.066Z,99522.16
2022-11-15T13:28:35.792Z,99563.78
2022-11-15T13:31:30.489Z,99553.03
2022-11-15T13:34:02.741Z,99554.47
2022-11-15T13:36:35.051Z,99552.94
2022-11-15T13:39:05.598Z,99556.38
2022-11-15T13:41:35.596Z,99553.41
2022-11-15T13:44:05.715Z,99556.19
2022-11-15T13:46:35.880Z,99552.16
2022-11-15T13:49:05.164Z,99543.81
2022-11-15T13:51:39.222Z,99510.34
2022-11-15T13:54:18.059Z,99550.44
2022-11-15T13:56:50.158Z,99508.03
2022-11-15T13:59:27.202Z,99545.44
2022-11-15T14:01:58.397Z,99549.38
2022-11-15T14:04:30.666Z,99542.94
2022-11-15T14:07:00.938Z,99535.50
2022-11-15T14:09:34.208Z,99535.03
2022-11-15T14:12:04.457Z,99532.88
2022-11-15T14:14:32.653Z,99531.16
2022-11-15T14:17:02.768Z,99529.22
2022-11-15T14:19:39.703Z,99529.34
2022-11-15T14:22:16.967Z,99448.78
2022-11-15T14:24:46.770Z,99501.81
2022-11-15T14:27:22.911Z,99523.34
2022-11-15T14:29:51.205Z,99525.25
2022-11-15T14:32:22.736Z,99493.94
2022-11-15T14:34:51.523Z,99513.75
2022-11-15T14:37:25.926Z,99417.19
2022-11-15T14:39:55.083Z,99502.38
2022-11-15T14:42:26.444Z,99514.06
2022-11-15T14:44:54.846Z,99507.53
2022-11-15T14:47:24.287Z,99517.50
2022-11-15T14:49:52.315Z,99501.94
2022-11-15T14:52:31.798Z,99509.44
2022-11-15T14:55:00.470Z,99490.53
2022-11-15T14:57:28.544Z,99475.00
2022-11-15T14:59:56.544Z,99489.22
2022-11-15T15:02:27.762Z,99487.19
2022-11-15T15:04:55.762Z,99397.59
2022-11-15T15:07:24.421Z,99464.44
2022-11-15T15:09:52.507Z,99496.34
2022-11-15T15:12:22.337Z,99489.44
2022-11-15T15:14:51.518Z,99485.75
2022-11-15T15:17:19.952Z,99477.13
2022-11-15T15:19:49.392Z,99456.84
2022-11-15T15:22:19.767Z,99477.88
2022-11-15T15:24:48.648Z,99479.22
2022-11-15T15:27:16.600Z,99442.75
2022-11-15T15:29:44.570Z,99459.53
2022-11-15T15:32:14.322Z,99467.91
2022-11-15T15:34:42.235Z,99467.81
2022-11-15T15:37:24.989Z,99420.81
2022-11-15T15:39:53.921Z,99355.25
2022-11-15T15:42:22.582Z,99451.97
2022-11-15T15:44:51.343Z,99451.84
2022-11-15T15:47:21.728Z,99442.94
2022-11-15T15:49:50.586Z,99419.31
2022-11-15T15:52:20.354Z,99447.44
2022-11-15T15:54:48.360Z,99440.44
2022-11-15T15:57:16.553Z,99414.97
2022-11-15T15:59:44.548Z,99424.41
2022-11-15T16:02:14.270Z,99426.03
2022-11-15T16:04:42.446Z,99418.53
2022-11-15T16:07:18.123Z,99429.94
2022-11-15T16:10:02.482Z,99426.47
2022-11-15T16:12:30.964Z,99426.22
2022-11-15T16:14:59.073Z,99421.28
2022-11-15T16:17:33.749Z,99419.28
2022-11-15T16:20:02.739Z,99372.19
2022-11-15T16:22:30.776Z,99415.00
2022-11-15T16:25:00.409Z,99396.09
2022-11-15T16:27:28.386Z,99418.88
2022-11-15T16:29:56.446Z,99416.34
2022-11-15T16:32:25.077Z,99415.22
2022-11-15T16:34:53.078Z,99369.97
2022-11-15T16:37:24.435Z,99350.00
2022-11-15T16:39:54.869Z,99394.28
2022-11-15T16:42:26.840Z,99400.81
2022-11-15T16:44:54.809Z,99400.41
2022-11-15T16:47:22.937Z,99393.78
2022-11-15T16:49:50.980Z,99385.81
2022-11-15T16:52:21.497Z,99374.09
2022-11-15T16:54:49.673Z,99390.22
2022-11-15T16:57:17.753Z,99391.00
2022-11-15T16:59:47.368Z,99389.09
2022-11-15T17:02:17.325Z,99386.94
2022-11-15T17:04:45.327Z,99380.94
2022-11-15T17:07:13.434Z,99387.28
2022-11-15T17:09:41.613Z,99387.88
2022-11-15T17:12:11.702Z,99374.81
2022-11-15T17:14:39.669Z,99373.94
2022-11-15T17:17:10.780Z,99370.88
2022-11-15T17:19:38.760Z,99375.03
2022-11-15T17:22:06.723Z,99351.16
2022-11-15T17:24:34.788Z,99367.06
2022-11-15T17:27:02.804Z,99365.78
2022-11-15T17:29:31.035Z,99357.41
2022-11-15T17:31:59.235Z,99349.59
2022-11-15T17:34:28.601Z,99352.38
2022-11-15T17:36:56.508Z,99279.91
2022-11-15T17:39:24.989Z,99293.41
2022-11-15T17:42:02.205Z,99309.91
2022-11-15T17:44:30.205Z,99345.44
2022-11-15T17:46:58.013Z,99335.34
2022-11-15T17:49:26.077Z,99272.84
2022-11-15T17:51:55.298Z,99346.25
2022-11-15T17:54:23.207Z,99338.34
2022-11-15T17:56:51.134Z,99310.09
2022-11-15T17:59:21.561Z,99335.97
2022-11-15T18:01:50.018Z,99338.28
2022-11-15T18:04:18.180Z,99332.28
2022-11-15T18:06:46.135Z,99337.56
2022-11-15T18:09:15.583Z,99333.00
2022-11-15T18:11:50.512Z,99331.44
2022-11-15T18:14:20.484Z,99337.03
2022-11-15T18:16:48.478Z,99336.44
2022-11-15T18:19:16.319Z,99313.09
2022-11-15T18:21:57.159Z,99333.06
2022-11-15T18:24:28.707Z,99295.03
2022-11-15T18:26:56.786Z,99326.69
2022-11-15T18:29:25.670Z,99326.00
2022-11-15T18:31:56.105Z,99325.03
2022-11-15T18:34:25.724Z,99309.66
2022-11-15T18:36:54.280Z,99331.44
2022-11-15T18:39:22.219Z,99308.63
2022-11-15T18:41:52.351Z,99325.72
2022-11-15T18:44:20.609Z,99319.63
2022-11-15T18:46:48.569Z,99204.91
2022-11-15T18:49:19.693Z,99326.50
2022-11-15T18:51:48.490Z,99314.66
2022-11-15T18:54:17.667Z,99319.63
2022-11-15T18:56:46.811Z,99311.25
2022-11-15T18:59:16.507Z,99306.75
2022-11-15T19:01:47.701Z,99296.16
2022-11-15T19:04:18.497Z,99299.47
2022-11-15T19:06:47.579Z,99301.78
2022-11-15T19:09:17.299Z,99303.25
2022-11-15T19:11:46.860Z,99305.34
2022-11-15T19:14:18.264Z,99297.84
2022-11-15T19:16:50.031Z,99276.94
2022-11-15T19:19:19.957Z,99177.56
2022-11-15T19:21:48.617Z,99291.16
2022-11-15T19:24:16.662Z,99288.94
2022-11-15T19:26:45.147Z,99284.16
2022-11-15T19:29:13.884Z,99237.00
2022-11-15T19:31:43.495Z,99288.09
2022-11-15T19:34:12.806Z,99265.13
2022-11-15T19:36:42.548Z,99288.59
2022-11-15T19:39:13.031Z,99187.38
2022-11-15T19:41:42.659Z,99287.97
2022-11-15T19:44:11.866Z,99146.91
2022-11-15T19:46:40.930Z,99285.97
2022-11-15T19:49:11.533Z,99142.81
2022-11-15T19:51:42.407Z,99238.19
2022-11-15T19:54:10.715Z,99264.78
2022-11-15T19:56:39.861Z,99291.16
2022-11-15T19:59:08.194Z,99286.44
2022-11-15T20:01:39.227Z,99283.38
2022-11-15T20:04:09.898Z,99278.72
2022-11-15T20:06:41.875Z,99268.16
2022-11-15T20:09:13.679Z,99223.00
2022-11-15T20:11:41.688Z,99264.38
2022-11-15T20:14:11.633Z,99122.91
2022-11-15T20:16:40.172Z,99144.81
2022-11-15T20:19:08.856Z,99216.75
2022-11-15T20:21:37.145Z,99098.72
2022-11-15T20:24:07.696Z,99227.53
2022-11-15T20:26:35.644Z,99238.94
2022-11-15T20:29:03.997Z,99242.38
2022-11-15T20:31:32.596Z,99239.59
2022-11-15T20:34:01.006Z,99238.53
2022-11-15T20:36:29.272Z,99235.78
2022-11-15T20:39:01.015Z,99239.22
2022-11-15T20:41:30.414Z,99240.75
2022-11-15T20:43:58.355Z,99237.81
2022-11-15T20:46:26.407Z,99234.19
2022-11-15T20:48:54.440Z,99253.16
2022-11-15T20:51:22.534Z,99245.41
2022-11-15T20:53:50.688Z,99226.72
2022-11-15T20:56:21.050Z,99234.28
2022-11-15T20:58:51.275Z,99222.44
2022-11-15T21:01:23.894Z,99236.59
2022-11-15T21:03:53.046Z,99172.38
2022-11-15T21:06:21.791Z,99235.97
2022-11-15T21:09:07.758Z,99228.50
2022-11-15T21:11:53.791Z,99222.44
2022-11-15T21:14:23.279Z,99222.63
2022-11-15T21:16:51.661Z,99205.16
2022-11-15T21:19:25.403Z,99215.53
2022-11-15T21:21:55.990Z,99191.44
2022-11-15T21:24:24.636Z,99220.31
2022-11-15T21:26:52.730Z,99197.22
2022-11-15T21:29:21.046Z,99208.16
2022-11-15T21:31:52.921Z,99217.56
2022-11-15T21:34:21.625Z,99212.38
2022-11-15T21:36:49.558Z,99158.47
2022-11-15T21:39:17.532Z,99213.72
2022-11-15T21:41:45.916Z,99203.19
2022-11-15T21:44:13.847Z,99187.63
2022-11-15T21:46:41.886Z,99200.06
2022-11-15T21:49:11.298Z,99196.34
2022-11-15T21:51:39.439Z,99195.56
2022-11-15T21:54:07.554Z,99165.47
2022-11-15T21:56:36.396Z,99177.38
2022-11-15T21:59:04.613Z,99169.41
2022-11-15T22:01:50.249Z,99143.13
2022-11-15T22:04:21.429Z,99172.97
2022-11-15T22:06:49.728Z,99162.94
2022-11-15T22:09:17.946Z,99164.75
2022-11-15T22:11:46.639Z,99160.72
2022-11-15T22:14:14.699Z,99163.97
2022-11-15T22:16:42.804Z,99159.75
2022-11-15T22:19:10.929Z,99160.69
2022-11-15T22:21:40.761Z,99086.03
2022-11-15T22:24:09.327Z,99160.50
2022-11-15T22:26:37.444Z,99158.19
2022-11-15T22:29:05.517Z,99160.19
2022-11-15T22:31:33.767Z,99158.00
2022-11-15T22:34:02.045Z,99150.03
2022-11-15T22:36:38.891Z,99145.66
2022-11-15T22:39:17.040Z,99146.72
2022-11-15T22:41:44.986Z,99126.56
2022-11-15T22:44:13.039Z,99135.19
2022-11-15T22:46:40.992Z,99131.34
2022-11-15T22:49:10.095Z,99120.75
2022-11-15T22:51:40.642Z,99117.66
2022-11-15T22:54:08.855Z,99119.22
2022-11-15T22:56:38.710Z,99127.19
2022-11-15T22:59:06.855Z,99121.41
2022-11-15T23:01:34.991Z,99109.91
2022-11-15T23:04:03.323Z,99075.28
2022-11-15T23:06:31.453Z,99109.78
2022-11-15T23:08:59.552Z,99108.28
2022-11-15T23:11:44.994Z,99095.88
2022-11-15T23:14:14.446Z,99104.84
2022-11-15T23:16:42.573Z,99104.06
2022-11-15T23:19:11.938Z,99100.81
2022-11-15T23:21:59.149Z,99078.63
2022-11-15T23:24:27.455Z,99104.06
2022-11-15T23:26:57.541Z,99102.91
2022-11-15T23:29:29.154Z,99095.22
2022-11-15T23:32:15.377Z,99092.81
2022-11-15T23:34:45.682Z,99094.84
2022-11-15T23:37:15.021Z,99090.72
2022-11-15T23:39:43.146Z,99085.94
2022-11-15T23:42:19.610Z,99078.75
2022-11-15T23:44:51.053Z,99075.50
2022-11-15T23:47:19.532Z,99072.22
2022-11-15T23:49:47.909Z,99074.28
2022-11-15T23:52:16.688Z,99072.97
2022-11-15T23:54:44.948Z,99055.69
2022-11-15T23:57:13.419Z,99066.81
2022-11-15T23:59:43.629Z,99068.72
